sensor_id;sensor_type;location;lat;lon;timestamp;P1;durP1;ratioP1;P2;durP2;ratioP2
38779;SDS011;29273;49.962;9.768;2023-06-14T00:00:18;4.57;;;2.20;;
38779;SDS011;29273;49.962;9.768;2023-06-14T00:02:43;3.88;;;2.35;;
38779;SDS011;29273;49.962;9.768;2023-06-14T00:05:09;2.40;;;2.00;;
38779;SDS011;29273;49.962;9.768;2023-06-14T00:07:38;2.70;;;2.20;;
38779;SDS011;29273;49.962;9.768;2023-06-14T00:10:07;3.28;;;2.20;;
38779;SDS011;29273;49.962;9.768;2023-06-14T00:12:34;2.20;;;2.00;;
38779;SDS011;29273;49.962;9.768;2023-06-14T00:15:00;2.15;;;1.95;;
38779;SDS011;29273;49.962;9.768;2023-06-14T00:17:29;2.80;;;2.08;;
38779;SDS011;29273;49.962;9.768;2023-06-14T00:19:58;2.08;;;1.88;;
38779;SDS011;29273;49.962;9.768;2023-06-14T00:22:24;3.75;;;2.08;;
38779;SDS011;29273;49.962;9.768;2023-06-14T00:24:51;3.03;;;2.42;;
38779;SDS011;29273;49.962;9.768;2023-06-14T00:27:17;2.00;;;1.77;;
38779;SDS011;29273;49.962;9.768;2023-06-14T00:29:43;4.65;;;2.58;;
38779;SDS011;29273;49.962;9.768;2023-06-14T00:32:08;2.70;;;2.20;;
38779;SDS011;29273;49.962;9.768;2023-06-14T00:34:34;2.63;;;2.17;;
38779;SDS011;29273;49.962;9.768;2023-06-14T00:37:00;2.60;;;2.03;;
38779;SDS011;29273;49.962;9.768;2023-06-14T00:39:26;3.00;;;2.47;;
38779;SDS011;29273;49.962;9.768;2023-06-14T00:41:51;2.40;;;2.20;;
38779;SDS011;29273;49.962;9.768;2023-06-14T00:44:18;3.67;;;2.55;;
38779;SDS011;29273;49.962;9.768;2023-06-14T00:46:46;2.45;;;2.03;;
38779;SDS011;29273;49.962;9.768;2023-06-14T00:49:12;2.50;;;2.10;;
38779;SDS011;29273;49.962;9.768;2023-06-14T00:51:40;2.78;;;2.15;;
38779;SDS011;29273;49.962;9.768;2023-06-14T00:54:07;2.90;;;2.30;;
38779;SDS011;29273;49.962;9.768;2023-06-14T00:56:32;3.78;;;2.42;;
38779;SDS011;29273;49.962;9.768;2023-06-14T00:58:58;2.13;;;1.90;;
38779;SDS011;29273;49.962;9.768;2023-06-14T01:01:24;2.33;;;2.13;;
38779;SDS011;29273;49.962;9.768;2023-06-14T01:03:50;2.33;;;1.95;;
38779;SDS011;29273;49.962;9.768;2023-06-14T01:09:27;2.92;;;2.28;;
38779;SDS011;29273;49.962;9.768;2023-06-14T01:12:04;2.17;;;1.98;;
38779;SDS011;29273;49.962;9.768;2023-06-14T01:14:37;2.53;;;2.10;;
38779;SDS011;29273;49.962;9.768;2023-06-14T01:17:04;2.80;;;2.33;;
38779;SDS011;29273;49.962;9.768;2023-06-14T01:19:30;2.90;;;2.28;;
38779;SDS011;29273;49.962;9.768;2023-06-14T01:21:56;2.95;;;2.08;;
38779;SDS011;29273;49.962;9.768;2023-06-14T01:24:22;2.53;;;2.25;;
38779;SDS011;29273;49.962;9.768;2023-06-14T01:26:54;2.40;;;2.05;;
38779;SDS011;29273;49.962;9.768;2023-06-14T01:29:24;1.92;;;1.73;;
38779;SDS011;29273;49.962;9.768;2023-06-14T01:31:51;2.78;;;2.03;;
38779;SDS011;29273;49.962;9.768;2023-06-14T01:34:18;2.40;;;1.88;;
38779;SDS011;29273;49.962;9.768;2023-06-14T01:36:44;3.00;;;2.10;;
38779;SDS011;29273;49.962;9.768;2023-06-14T01:39:11;2.22;;;2.00;;
38779;SDS011;29273;49.962;9.768;2023-06-14T01:41:39;2.83;;;2.08;;
38779;SDS011;29273;49.962;9.768;2023-06-14T01:44:05;3.00;;;2.20;;
38779;SDS011;29273;49.962;9.768;2023-06-14T01:46:32;3.35;;;1.92;;
38779;SDS011;29273;49.962;9.768;2023-06-14T01:48:58;1.80;;;1.67;;
38779;SDS011;29273;49.962;9.768;2023-06-14T01:51:25;2.88;;;2.00;;
38779;SDS011;29273;49.962;9.768;2023-06-14T01:53:51;2.53;;;1.83;;
38779;SDS011;29273;49.962;9.768;2023-06-14T01:56:16;2.75;;;2.10;;
38779;SDS011;29273;49.962;9.768;2023-06-14T01:58:42;2.20;;;2.00;;
38779;SDS011;29273;49.962;9.768;2023-06-14T02:01:09;2.30;;;2.08;;
38779;SDS011;29273;49.962;9.768;2023-06-14T02:03:36;2.10;;;1.90;;
38779;SDS011;29273;49.962;9.768;2023-06-14T02:06:03;3.38;;;1.90;;
38779;SDS011;29273;49.962;9.768;2023-06-14T02:08:28;2.10;;;1.80;;
38779;SDS011;29273;49.962;9.768;2023-06-14T02:10:54;3.78;;;2.05;;
38779;SDS011;29273;49.962;9.768;2023-06-14T02:13:20;2.65;;;2.13;;
38779;SDS011;29273;49.962;9.768;2023-06-14T02:15:46;2.10;;;1.90;;
38779;SDS011;29273;49.962;9.768;2023-06-14T02:18:13;3.33;;;1.80;;
38779;SDS011;29273;49.962;9.768;2023-06-14T02:20:39;2.55;;;2.05;;
38779;SDS011;29273;49.962;9.768;2023-06-14T02:23:04;2.55;;;2.08;;
38779;SDS011;29273;49.962;9.768;2023-06-14T02:25:30;2.15;;;1.75;;
38779;SDS011;29273;49.962;9.768;2023-06-14T02:27:56;2.10;;;1.90;;
38779;SDS011;29273;49.962;9.768;2023-06-14T02:30:21;2.30;;;1.90;;
38779;SDS011;29273;49.962;9.768;2023-06-14T02:32:47;4.65;;;1.92;;
38779;SDS011;29273;49.962;9.768;2023-06-14T02:35:14;2.63;;;1.80;;
38779;SDS011;29273;49.962;9.768;2023-06-14T02:37:39;2.22;;;1.98;;
38779;SDS011;29273;49.962;9.768;2023-06-14T02:40:05;2.90;;;1.88;;
38779;SDS011;29273;49.962;9.768;2023-06-14T02:42:31;2.83;;;1.98;;
38779;SDS011;29273;49.962;9.768;2023-06-14T02:44:57;2.00;;;1.70;;
38779;SDS011;29273;49.962;9.768;2023-06-14T02:47:22;2.47;;;2.10;;
38779;SDS011;29273;49.962;9.768;2023-06-14T02:49:48;2.67;;;2.00;;
38779;SDS011;29273;49.962;9.768;2023-06-14T02:52:14;4.63;;;1.77;;
38779;SDS011;29273;49.962;9.768;2023-06-14T02:54:40;2.55;;;1.98;;
38779;SDS011;29273;49.962;9.768;2023-06-14T02:57:07;2.20;;;2.00;;
38779;SDS011;29273;49.962;9.768;2023-06-14T02:59:34;2.28;;;1.98;;
38779;SDS011;29273;49.962;9.768;2023-06-14T03:02:00;2.30;;;1.70;;
38779;SDS011;29273;49.962;9.768;2023-06-14T03:04:26;2.28;;;1.83;;
38779;SDS011;29273;49.962;9.768;2023-06-14T03:06:52;2.10;;;1.90;;
38779;SDS011;29273;49.962;9.768;2023-06-14T03:09:21;2.55;;;2.10;;
38779;SDS011;29273;49.962;9.768;2023-06-14T03:11:47;2.40;;;1.85;;
38779;SDS011;29273;49.962;9.768;2023-06-14T03:14:13;2.10;;;1.90;;
38779;SDS011;29273;49.962;9.768;2023-06-14T03:16:41;2.35;;;1.92;;
38779;SDS011;29273;49.962;9.768;2023-06-14T03:19:09;1.92;;;1.75;;
38779;SDS011;29273;49.962;9.768;2023-06-14T03:21:34;2.28;;;1.83;;
38779;SDS011;29273;49.962;9.768;2023-06-14T03:24:02;2.13;;;1.90;;
38779;SDS011;29273;49.962;9.768;2023-06-14T03:26:28;2.45;;;1.73;;
38779;SDS011;29273;49.962;9.768;2023-06-14T03:28:55;1.83;;;1.70;;
38779;SDS011;29273;49.962;9.768;2023-06-14T03:31:22;3.40;;;1.60;;
38779;SDS011;29273;49.962;9.768;2023-06-14T03:33:49;2.33;;;1.92;;
38779;SDS011;29273;49.962;9.768;2023-06-14T03:36:14;2.28;;;2.00;;
38779;SDS011;29273;49.962;9.768;2023-06-14T03:38:40;2.58;;;2.10;;
38779;SDS011;29273;49.962;9.768;2023-06-14T03:41:05;2.72;;;2.10;;
38779;SDS011;29273;49.962;9.768;2023-06-14T03:43:31;2.03;;;1.83;;
38779;SDS011;29273;49.962;9.768;2023-06-14T03:45:59;2.88;;;2.35;;
38779;SDS011;29273;49.962;9.768;2023-06-14T03:48:25;3.03;;;1.92;;
38779;SDS011;29273;49.962;9.768;2023-06-14T03:50:51;2.92;;;2.35;;
38779;SDS011;29273;49.962;9.768;2023-06-14T03:53:16;2.03;;;1.83;;
38779;SDS011;29273;49.962;9.768;2023-06-14T03:55:46;2.10;;;1.83;;
38779;SDS011;29273;49.962;9.768;2023-06-14T03:58:14;3.22;;;1.95;;
38779;SDS011;29273;49.962;9.768;2023-06-14T04:00:40;2.00;;;1.80;;
38779;SDS011;29273;49.962;9.768;2023-06-14T04:03:06;3.65;;;2.20;;
38779;SDS011;29273;49.962;9.768;2023-06-14T04:05:31;2.72;;;1.98;;
38779;SDS011;29273;49.962;9.768;2023-06-14T04:07:57;3.08;;;2.00;;
38779;SDS011;29273;49.962;9.768;2023-06-14T04:10:24;2.42;;;2.20;;
38779;SDS011;29273;49.962;9.768;2023-06-14T04:12:49;2.50;;;2.08;;
38779;SDS011;29273;49.962;9.768;2023-06-14T04:15:16;2.50;;;2.30;;
38779;SDS011;29273;49.962;9.768;2023-06-14T04:17:43;1.98;;;1.80;;
38779;SDS011;29273;49.962;9.768;2023-06-14T04:20:09;2.10;;;1.90;;
38779;SDS011;29273;49.962;9.768;2023-06-14T04:22:35;2.20;;;2.00;;
38779;SDS011;29273;49.962;9.768;2023-06-14T04:25:02;2.38;;;1.85;;
38779;SDS011;29273;49.962;9.768;2023-06-14T04:27:29;1.98;;;1.80;;
38779;SDS011;29273;49.962;9.768;2023-06-14T04:29:58;3.38;;;2.05;;
38779;SDS011;29273;49.962;9.768;2023-06-14T04:32:30;2.15;;;1.80;;
38779;SDS011;29273;49.962;9.768;2023-06-14T04:34:58;2.33;;;1.80;;
38779;SDS011;29273;49.962;9.768;2023-06-14T04:37:27;2.15;;;1.95;;
38779;SDS011;29273;49.962;9.768;2023-06-14T04:39:57;3.03;;;2.20;;
38779;SDS011;29273;49.962;9.768;2023-06-14T04:42:23;2.20;;;1.90;;
38779;SDS011;29273;49.962;9.768;2023-06-14T04:44:51;2.72;;;1.90;;
38779;SDS011;29273;49.962;9.768;2023-06-14T04:47:20;1.98;;;1.80;;
38779;SDS011;29273;49.962;9.768;2023-06-14T04:49:46;3.22;;;2.00;;
38779;SDS011;29273;49.962;9.768;2023-06-14T04:52:11;2.65;;;2.00;;
38779;SDS011;29273;49.962;9.768;2023-06-14T04:54:40;2.35;;;1.83;;
38779;SDS011;29273;49.962;9.768;2023-06-14T04:57:10;2.00;;;1.80;;
38779;SDS011;29273;49.962;9.768;2023-06-14T04:59:40;2.17;;;1.73;;
38779;SDS011;29273;49.962;9.768;2023-06-14T05:02:06;2.30;;;2.10;;
38779;SDS011;29273;49.962;9.768;2023-06-14T05:04:32;2.67;;;2.15;;
38779;SDS011;29273;49.962;9.768;2023-06-14T05:06:58;2.55;;;2.00;;
38779;SDS011;29273;49.962;9.768;2023-06-14T05:09:24;2.00;;;1.80;;
38779;SDS011;29273;49.962;9.768;2023-06-14T05:11:50;3.15;;;1.92;;
38779;SDS011;29273;49.962;9.768;2023-06-14T05:14:16;1.90;;;1.80;;
38779;SDS011;29273;49.962;9.768;2023-06-14T05:16:42;1.90;;;1.65;;
38779;SDS011;29273;49.962;9.768;2023-06-14T05:19:08;2.35;;;1.88;;
38779;SDS011;29273;49.962;9.768;2023-06-14T05:21:35;2.08;;;1.88;;
38779;SDS011;29273;49.962;9.768;2023-06-14T05:24:02;1.92;;;1.73;;
38779;SDS011;29273;49.962;9.768;2023-06-14T05:26:28;2.08;;;1.88;;
38779;SDS011;29273;49.962;9.768;2023-06-14T05:28:57;2.20;;;1.70;;
38779;SDS011;29273;49.962;9.768;2023-06-14T05:31:23;1.95;;;1.60;;
38779;SDS011;29273;49.962;9.768;2023-06-14T05:33:49;1.92;;;1.63;;
38779;SDS011;29273;49.962;9.768;2023-06-14T05:36:15;1.85;;;1.58;;
38779;SDS011;29273;49.962;9.768;2023-06-14T05:38:41;2.08;;;1.70;;
38779;SDS011;29273;49.962;9.768;2023-06-14T05:41:06;2.30;;;1.63;;
38779;SDS011;29273;49.962;9.768;2023-06-14T05:43:32;2.97;;;1.55;;
38779;SDS011;29273;49.962;9.768;2023-06-14T05:45:57;1.83;;;1.67;;
38779;SDS011;29273;49.962;9.768;2023-06-14T05:48:23;1.63;;;1.48;;
38779;SDS011;29273;49.962;9.768;2023-06-14T05:50:48;2.42;;;1.73;;
38779;SDS011;29273;49.962;9.768;2023-06-14T05:53:13;1.77;;;1.60;;
38779;SDS011;29273;49.962;9.768;2023-06-14T05:55:39;2.22;;;1.65;;
38779;SDS011;29273;49.962;9.768;2023-06-14T05:58:04;1.73;;;1.40;;
38779;SDS011;29273;49.962;9.768;2023-06-14T06:00:30;1.85;;;1.50;;
38779;SDS011;29273;49.962;9.768;2023-06-14T06:02:55;2.08;;;1.60;;
38779;SDS011;29273;49.962;9.768;2023-06-14T06:05:22;1.75;;;1.25;;
38779;SDS011;29273;49.962;9.768;2023-06-14T06:07:48;1.58;;;1.38;;
38779;SDS011;29273;49.962;9.768;2023-06-14T06:10:14;1.40;;;1.30;;
38779;SDS011;29273;49.962;9.768;2023-06-14T06:12:40;1.65;;;1.40;;
38779;SDS011;29273;49.962;9.768;2023-06-14T06:15:06;1.48;;;1.38;;
38779;SDS011;29273;49.962;9.768;2023-06-14T06:17:33;2.08;;;1.27;;
38779;SDS011;29273;49.962;9.768;2023-06-14T06:19:59;1.25;;;1.15;;
38779;SDS011;29273;49.962;9.768;2023-06-14T06:22:25;1.52;;;1.30;;
38779;SDS011;29273;49.962;9.768;2023-06-14T06:24:50;1.50;;;1.35;;
38779;SDS011;29273;49.962;9.768;2023-06-14T06:27:15;1.27;;;1.13;;
38779;SDS011;29273;49.962;9.768;2023-06-14T06:29:43;1.30;;;1.20;;
38779;SDS011;29273;49.962;9.768;2023-06-14T06:32:09;1.65;;;1.40;;
38779;SDS011;29273;49.962;9.768;2023-06-14T06:34:35;1.20;;;1.10;;
38779;SDS011;29273;49.962;9.768;2023-06-14T06:37:00;1.25;;;1.15;;
38779;SDS011;29273;49.962;9.768;2023-06-14T06:39:26;1.90;;;1.23;;
38779;SDS011;29273;49.962;9.768;2023-06-14T06:41:51;1.30;;;1.05;;
38779;SDS011;29273;49.962;9.768;2023-06-14T06:44:26;1.45;;;1.20;;
38779;SDS011;29273;49.962;9.768;2023-06-14T06:46:54;1.08;;;0.98;;
38779;SDS011;29273;49.962;9.768;2023-06-14T06:49:20;1.25;;;1.00;;
38779;SDS011;29273;49.962;9.768;2023-06-14T06:51:58;1.60;;;1.38;;
38779;SDS011;29273;49.962;9.768;2023-06-14T06:54:28;1.55;;;1.23;;
38779;SDS011;29273;49.962;9.768;2023-06-14T06:56:54;1.23;;;1.13;;
38779;SDS011;29273;49.962;9.768;2023-06-14T06:59:19;1.30;;;1.20;;
38779;SDS011;29273;49.962;9.768;2023-06-14T07:01:46;1.38;;;1.27;;
38779;SDS011;29273;49.962;9.768;2023-06-14T07:04:12;1.52;;;1.15;;
38779;SDS011;29273;49.962;9.768;2023-06-14T07:06:37;1.27;;;1.15;;
38779;SDS011;29273;49.962;9.768;2023-06-14T07:09:03;1.17;;;1.00;;
38779;SDS011;29273;49.962;9.768;2023-06-14T07:11:33;1.30;;;1.20;;
38779;SDS011;29273;49.962;9.768;2023-06-14T07:13:59;1.33;;;1.23;;
38779;SDS011;29273;49.962;9.768;2023-06-14T07:16:24;1.40;;;1.10;;
38779;SDS011;29273;49.962;9.768;2023-06-14T07:18:50;3.13;;;1.40;;
38779;SDS011;29273;49.962;9.768;2023-06-14T07:21:16;1.50;;;1.20;;
38779;SDS011;29273;49.962;9.768;2023-06-14T07:23:42;1.40;;;1.10;;
38779;SDS011;29273;49.962;9.768;2023-06-14T07:26:07;1.38;;;1.20;;
38779;SDS011;29273;49.962;9.768;2023-06-14T07:28:32;1.52;;;1.00;;
38779;SDS011;29273;49.962;9.768;2023-06-14T07:30:58;1.45;;;1.10;;
38779;SDS011;29273;49.962;9.768;2023-06-14T07:33:23;1.35;;;1.25;;
38779;SDS011;29273;49.962;9.768;2023-06-14T07:35:49;1.80;;;1.40;;
38779;SDS011;29273;49.962;9.768;2023-06-14T07:38:15;1.50;;;1.23;;
38779;SDS011;29273;49.962;9.768;2023-06-14T07:40:41;2.08;;;1.40;;
38779;SDS011;29273;49.962;9.768;2023-06-14T07:43:06;1.33;;;1.23;;
38779;SDS011;29273;49.962;9.768;2023-06-14T07:45:32;2.00;;;1.33;;
38779;SDS011;29273;49.962;9.768;2023-06-14T07:47:57;1.63;;;1.30;;
38779;SDS011;29273;49.962;9.768;2023-06-14T07:50:23;1.38;;;1.20;;
38779;SDS011;29273;49.962;9.768;2023-06-14T07:52:48;2.47;;;1.60;;
38779;SDS011;29273;49.962;9.768;2023-06-14T07:55:14;1.33;;;1.23;;
38779;SDS011;29273;49.962;9.768;2023-06-14T07:57:40;1.42;;;1.33;;
38779;SDS011;29273;49.962;9.768;2023-06-14T08:00:06;1.88;;;1.20;;
38779;SDS011;29273;49.962;9.768;2023-06-14T08:02:37;1.23;;;1.13;;
38779;SDS011;29273;49.962;9.768;2023-06-14T08:05:02;1.70;;;1.20;;
38779;SDS011;29273;49.962;9.768;2023-06-14T08:07:28;1.05;;;0.98;;
38779;SDS011;29273;49.962;9.768;2023-06-14T08:09:54;1.42;;;1.20;;
38779;SDS011;29273;49.962;9.768;2023-06-14T08:12:19;1.50;;;1.30;;
38779;SDS011;29273;49.962;9.768;2023-06-14T08:14:45;2.03;;;1.58;;
38779;SDS011;29273;49.962;9.768;2023-06-14T08:17:10;1.35;;;1.20;;
38779;SDS011;29273;49.962;9.768;2023-06-14T08:19:36;1.55;;;1.27;;
38779;SDS011;29273;49.962;9.768;2023-06-14T08:22:01;1.33;;;1.23;;
38779;SDS011;29273;49.962;9.768;2023-06-14T08:24:28;3.10;;;1.27;;
38779;SDS011;29273;49.962;9.768;2023-06-14T08:26:54;1.30;;;1.10;;
38779;SDS011;29273;49.962;9.768;2023-06-14T08:29:20;1.17;;;1.08;;
38779;SDS011;29273;49.962;9.768;2023-06-14T08:31:46;1.52;;;1.30;;
38779;SDS011;29273;49.962;9.768;2023-06-14T08:34:12;1.98;;;1.35;;
38779;SDS011;29273;49.962;9.768;2023-06-14T08:36:37;1.42;;;1.20;;
38779;SDS011;29273;49.962;9.768;2023-06-14T08:39:03;1.38;;;1.10;;
38779;SDS011;29273;49.962;9.768;2023-06-14T08:41:28;1.27;;;1.17;;
38779;SDS011;29273;49.962;9.768;2023-06-14T08:43:54;1.27;;;1.17;;
38779;SDS011;29273;49.962;9.768;2023-06-14T08:46:20;2.05;;;1.45;;
38779;SDS011;29273;49.962;9.768;2023-06-14T08:48:50;1.52;;;1.15;;
38779;SDS011;29273;49.962;9.768;2023-06-14T08:51:20;1.95;;;1.60;;
38779;SDS011;29273;49.962;9.768;2023-06-14T08:53:50;1.33;;;1.23;;
38779;SDS011;29273;49.962;9.768;2023-06-14T08:56:18;1.60;;;1.10;;
38779;SDS011;29273;49.962;9.768;2023-06-14T08:58:45;1.70;;;1.13;;
38779;SDS011;29273;49.962;9.768;2023-06-14T09:01:13;1.55;;;1.20;;
38779;SDS011;29273;49.962;9.768;2023-06-14T09:03:40;1.63;;;1.30;;
38779;SDS011;29273;49.962;9.768;2023-06-14T09:06:07;1.40;;;1.23;;
38779;SDS011;29273;49.962;9.768;2023-06-14T09:08:34;1.90;;;1.30;;
38779;SDS011;29273;49.962;9.768;2023-06-14T09:11:01;1.58;;;1.00;;
38779;SDS011;29273;49.962;9.768;2023-06-14T09:13:26;1.30;;;1.20;;
38779;SDS011;29273;49.962;9.768;2023-06-14T09:15:52;1.63;;;1.17;;
38779;SDS011;29273;49.962;9.768;2023-06-14T09:18:17;1.60;;;1.30;;
38779;SDS011;29273;49.962;9.768;2023-06-14T09:20:45;1.20;;;1.10;;
38779;SDS011;29273;49.962;9.768;2023-06-14T09:23:12;1.40;;;1.30;;
38779;SDS011;29273;49.962;9.768;2023-06-14T09:25:42;1.27;;;1.10;;
38779;SDS011;29273;49.962;9.768;2023-06-14T09:28:09;2.10;;;1.27;;
38779;SDS011;29273;49.962;9.768;2023-06-14T09:30:36;2.28;;;1.40;;
38779;SDS011;29273;49.962;9.768;2023-06-14T09:33:05;1.42;;;1.25;;
38779;SDS011;29273;49.962;9.768;2023-06-14T09:35:31;1.35;;;1.10;;
38779;SDS011;29273;49.962;9.768;2023-06-14T09:37:57;1.38;;;1.27;;
38779;SDS011;29273;49.962;9.768;2023-06-14T09:40:23;1.70;;;1.17;;
38779;SDS011;29273;49.962;9.768;2023-06-14T09:42:49;1.40;;;1.27;;
38779;SDS011;29273;49.962;9.768;2023-06-14T09:45:15;1.27;;;1.17;;
38779;SDS011;29273;49.962;9.768;2023-06-14T09:47:48;1.63;;;1.20;;
38779;SDS011;29273;49.962;9.768;2023-06-14T09:50:14;1.38;;;1.17;;
38779;SDS011;29273;49.962;9.768;2023-06-14T09:52:39;2.13;;;1.30;;
38779;SDS011;29273;49.962;9.768;2023-06-14T09:55:11;2.80;;;1.02;;
38779;SDS011;29273;49.962;9.768;2023-06-14T09:57:39;2.05;;;1.08;;
38779;SDS011;29273;49.962;9.768;2023-06-14T10:00:07;1.75;;;1.38;;
38779;SDS011;29273;49.962;9.768;2023-06-14T10:02:38;1.77;;;1.30;;
38779;SDS011;29273;49.962;9.768;2023-06-14T10:05:08;1.52;;;1.20;;
38779;SDS011;29273;49.962;9.768;2023-06-14T10:07:53;1.83;;;1.23;;
38779;SDS011;29273;49.962;9.768;2023-06-14T10:10:24;1.52;;;1.20;;
38779;SDS011;29273;49.962;9.768;2023-06-14T10:12:50;1.55;;;1.13;;
38779;SDS011;29273;49.962;9.768;2023-06-14T10:15:18;1.95;;;1.10;;
38779;SDS011;29273;49.962;9.768;2023-06-14T10:17:56;1.20;;;1.10;;
38779;SDS011;29273;49.962;9.768;2023-06-14T10:20:33;1.20;;;1.02;;
38779;SDS011;29273;49.962;9.768;2023-06-14T10:23:15;1.48;;;1.05;;
38779;SDS011;29273;49.962;9.768;2023-06-14T10:25:43;1.20;;;1.10;;
38779;SDS011;29273;49.962;9.768;2023-06-14T10:28:19;1.55;;;1.30;;
38779;SDS011;29273;49.962;9.768;2023-06-14T10:33:32;0.90;;;0.90;;
38779;SDS011;29273;49.962;9.768;2023-06-14T10:36:09;1.20;;;1.10;;
38779;SDS011;29273;49.962;9.768;2023-06-14T10:38:58;1.00;;;0.90;;
38779;SDS011;29273;49.962;9.768;2023-06-14T10:41:38;1.17;;;1.00;;
38779;SDS011;29273;49.962;9.768;2023-06-14T10:44:10;1.58;;;0.93;;
38779;SDS011;29273;49.962;9.768;2023-06-14T10:47:21;1.20;;;1.10;;
38779;SDS011;29273;49.962;9.768;2023-06-14T10:52:14;0.93;;;0.80;;
38779;SDS011;29273;49.962;9.768;2023-06-14T10:57:31;1.00;;;0.90;;
38779;SDS011;29273;49.962;9.768;2023-06-14T10:59:58;1.38;;;0.93;;
38779;SDS011;29273;49.962;9.768;2023-06-14T11:05:23;1.05;;;0.95;;
38779;SDS011;29273;49.962;9.768;2023-06-14T11:10:41;1.35;;;1.00;;
38779;SDS011;29273;49.962;9.768;2023-06-14T11:13:09;1.35;;;1.25;;
38779;SDS011;29273;49.962;9.768;2023-06-14T11:15:38;1.02;;;0.90;;
38779;SDS011;29273;49.962;9.768;2023-06-14T11:18:08;1.20;;;1.02;;
38779;SDS011;29273;49.962;9.768;2023-06-14T11:20:37;0.90;;;0.90;;
38779;SDS011;29273;49.962;9.768;2023-06-14T11:23:03;1.10;;;1.00;;
38779;SDS011;29273;49.962;9.768;2023-06-14T11:25:29;1.17;;;1.00;;
38779;SDS011;29273;49.962;9.768;2023-06-14T11:27:55;2.83;;;1.00;;
38779;SDS011;29273;49.962;9.768;2023-06-14T11:30:21;0.95;;;0.90;;
38779;SDS011;29273;49.962;9.768;2023-06-14T11:32:47;1.17;;;1.08;;
38779;SDS011;29273;49.962;9.768;2023-06-14T11:35:14;1.30;;;1.08;;
38779;SDS011;29273;49.962;9.768;2023-06-14T11:37:40;1.20;;;1.10;;
38779;SDS011;29273;49.962;9.768;2023-06-14T11:40:07;1.08;;;0.98;;
38779;SDS011;29273;49.962;9.768;2023-06-14T11:42:41;1.08;;;0.90;;
38779;SDS011;29273;49.962;9.768;2023-06-14T11:45:07;1.15;;;1.05;;
38779;SDS011;29273;49.962;9.768;2023-06-14T11:47:34;1.98;;;1.02;;
38779;SDS011;29273;49.962;9.768;2023-06-14T11:50:01;1.27;;;1.08;;
38779;SDS011;29273;49.962;9.768;2023-06-14T11:52:27;0.80;;;0.80;;
38779;SDS011;29273;49.962;9.768;2023-06-14T11:54:53;1.13;;;1.02;;
38779;SDS011;29273;49.962;9.768;2023-06-14T11:57:19;1.38;;;1.20;;
38779;SDS011;29273;49.962;9.768;2023-06-14T11:59:44;1.20;;;1.10;;
38779;SDS011;29273;49.962;9.768;2023-06-14T12:02:14;1.20;;;1.05;;
38779;SDS011;29273;49.962;9.768;2023-06-14T12:04:46;1.02;;;0.95;;
38779;SDS011;29273;49.962;9.768;2023-06-14T12:07:16;1.08;;;0.98;;
38779;SDS011;29273;49.962;9.768;2023-06-14T12:09:42;0.98;;;0.90;;
38779;SDS011;29273;49.962;9.768;2023-06-14T12:12:36;1.20;;;1.10;;
38779;SDS011;29273;49.962;9.768;2023-06-14T12:15:04;1.20;;;1.10;;
38779;SDS011;29273;49.962;9.768;2023-06-14T12:17:34;0.85;;;0.85;;
38779;SDS011;29273;49.962;9.768;2023-06-14T12:20:06;1.15;;;1.02;;
38779;SDS011;29273;49.962;9.768;2023-06-14T12:22:36;1.55;;;1.00;;
38779;SDS011;29273;49.962;9.768;2023-06-14T12:25:02;1.00;;;0.88;;
38779;SDS011;29273;49.962;9.768;2023-06-14T12:27:28;0.80;;;0.80;;
38779;SDS011;29273;49.962;9.768;2023-06-14T12:30:03;1.17;;;0.95;;
38779;SDS011;29273;49.962;9.768;2023-06-14T12:32:31;1.08;;;0.98;;
38779;SDS011;29273;49.962;9.768;2023-06-14T12:34:57;0.90;;;0.90;;
38779;SDS011;29273;49.962;9.768;2023-06-14T12:37:22;1.08;;;0.95;;
38779;SDS011;29273;49.962;9.768;2023-06-14T12:39:47;1.40;;;0.98;;
38779;SDS011;29273;49.962;9.768;2023-06-14T12:42:13;0.70;;;0.70;;
38779;SDS011;29273;49.962;9.768;2023-06-14T12:44:39;0.80;;;0.80;;
38779;SDS011;29273;49.962;9.768;2023-06-14T12:47:06;1.23;;;0.93;;
38779;SDS011;29273;49.962;9.768;2023-06-14T12:49:32;0.85;;;0.85;;
38779;SDS011;29273;49.962;9.768;2023-06-14T12:51:58;1.33;;;1.00;;
38779;SDS011;29273;49.962;9.768;2023-06-14T12:54:24;0.90;;;0.90;;
38779;SDS011;29273;49.962;9.768;2023-06-14T12:56:51;1.20;;;1.02;;
38779;SDS011;29273;49.962;9.768;2023-06-14T12:59:17;1.10;;;1.00;;
38779;SDS011;29273;49.962;9.768;2023-06-14T13:01:43;0.80;;;0.80;;
38779;SDS011;29273;49.962;9.768;2023-06-14T13:04:09;1.13;;;1.00;;
38779;SDS011;29273;49.962;9.768;2023-06-14T13:06:35;0.98;;;0.88;;
38779;SDS011;29273;49.962;9.768;2023-06-14T13:09:01;1.13;;;0.95;;
38779;SDS011;29273;49.962;9.768;2023-06-14T13:11:27;1.10;;;1.00;;
38779;SDS011;29273;49.962;9.768;2023-06-14T13:13:52;1.10;;;0.98;;
38779;SDS011;29273;49.962;9.768;2023-06-14T13:16:18;1.33;;;0.85;;
38779;SDS011;29273;49.962;9.768;2023-06-14T13:18:43;1.17;;;0.98;;
38779;SDS011;29273;49.962;9.768;2023-06-14T13:21:08;1.08;;;0.98;;
38779;SDS011;29273;49.962;9.768;2023-06-14T13:23:34;0.95;;;0.88;;
38779;SDS011;29273;49.962;9.768;2023-06-14T13:25:59;1.27;;;0.98;;
38779;SDS011;29273;49.962;9.768;2023-06-14T13:28:25;1.17;;;1.08;;
38779;SDS011;29273;49.962;9.768;2023-06-14T13:30:51;1.25;;;1.13;;
38779;SDS011;29273;49.962;9.768;2023-06-14T13:33:16;1.10;;;0.90;;
38779;SDS011;29273;49.962;9.768;2023-06-14T13:35:42;1.00;;;0.90;;
38779;SDS011;29273;49.962;9.768;2023-06-14T13:38:09;1.10;;;1.00;;
38779;SDS011;29273;49.962;9.768;2023-06-14T13:40:35;1.08;;;1.00;;
38779;SDS011;29273;49.962;9.768;2023-06-14T13:43:01;1.20;;;1.10;;
38779;SDS011;29273;49.962;9.768;2023-06-14T13:45:26;1.10;;;0.90;;
38779;SDS011;29273;49.962;9.768;2023-06-14T13:47:52;1.00;;;0.90;;
38779;SDS011;29273;49.962;9.768;2023-06-14T13:50:18;1.00;;;1.00;;
38779;SDS011;29273;49.962;9.768;2023-06-14T13:52:45;1.33;;;0.88;;
38779;SDS011;29273;49.962;9.768;2023-06-14T13:55:10;0.98;;;0.90;;
38779;SDS011;29273;49.962;9.768;2023-06-14T13:57:35;1.02;;;0.82;;
38779;SDS011;29273;49.962;9.768;2023-06-14T14:00:01;0.75;;;0.70;;
38779;SDS011;29273;49.962;9.768;2023-06-14T14:02:27;1.33;;;1.10;;
38779;SDS011;29273;49.962;9.768;2023-06-14T14:04:54;1.00;;;0.90;;
38779;SDS011;29273;49.962;9.768;2023-06-14T14:07:20;1.52;;;1.00;;
38779;SDS011;29273;49.962;9.768;2023-06-14T14:09:47;1.00;;;0.90;;
38779;SDS011;29273;49.962;9.768;2023-06-14T14:12:13;1.10;;;0.93;;
38779;SDS011;29273;49.962;9.768;2023-06-14T14:14:39;1.10;;;1.00;;
38779;SDS011;29273;49.962;9.768;2023-06-14T14:17:05;1.73;;;0.95;;
38779;SDS011;29273;49.962;9.768;2023-06-14T14:19:32;1.27;;;0.98;;
38779;SDS011;29273;49.962;9.768;2023-06-14T14:21:57;1.10;;;1.00;;
38779;SDS011;29273;49.962;9.768;2023-06-14T14:24:23;1.33;;;1.10;;
38779;SDS011;29273;49.962;9.768;2023-06-14T14:26:48;1.05;;;0.90;;
38779;SDS011;29273;49.962;9.768;2023-06-14T14:29:14;0.85;;;0.85;;
38779;SDS011;29273;49.962;9.768;2023-06-14T14:31:41;0.70;;;0.70;;
38779;SDS011;29273;49.962;9.768;2023-06-14T14:34:06;0.65;;;0.65;;
38779;SDS011;29273;49.962;9.768;2023-06-14T14:36:32;0.80;;;0.80;;
38779;SDS011;29273;49.962;9.768;2023-06-14T14:38:59;2.10;;;0.88;;
38779;SDS011;29273;49.962;9.768;2023-06-14T14:41:25;1.10;;;1.00;;
38779;SDS011;29273;49.962;9.768;2023-06-14T14:43:50;1.05;;;0.90;;
38779;SDS011;29273;49.962;9.768;2023-06-14T14:46:16;1.08;;;0.88;;
38779;SDS011;29273;49.962;9.768;2023-06-14T14:48:42;1.00;;;0.90;;
38779;SDS011;29273;49.962;9.768;2023-06-14T14:51:07;0.80;;;0.80;;
38779;SDS011;29273;49.962;9.768;2023-06-14T14:53:33;0.82;;;0.82;;
38779;SDS011;29273;49.962;9.768;2023-06-14T14:55:58;0.85;;;0.75;;
38779;SDS011;29273;49.962;9.768;2023-06-14T14:58:24;0.88;;;0.88;;
38779;SDS011;29273;49.962;9.768;2023-06-14T15:00:49;1.30;;;1.00;;
38779;SDS011;29273;49.962;9.768;2023-06-14T15:03:15;0.75;;;0.70;;